sensor_id;sensor_type;location;lat;lon;timestamp;temperature;humidity
22436;DHT22;11385;50.822;4.324;2022-12-18T00:02:12;-1.10;99.90
22436;DHT22;11385;50.822;4.324;2022-12-18T00:04:39;-1.10;99.90
22436;DHT22;11385;50.822;4.324;2022-12-18T00:07:06;-1.20;99.90
22436;DHT22;11385;50.822;4.324;2022-12-18T00:09:33;-1.20;99.90
22436;DHT22;11385;50.822;4.324;2022-12-18T00:12:00;-1.20;99.90
22436;DHT22;11385;50.822;4.324;2022-12-18T00:14:26;-1.20;99.90
22436;DHT22;11385;50.822;4.324;2022-12-18T00:16:53;-1.20;99.90
22436;DHT22;11385;50.822;4.324;2022-12-18T00:19:19;-1.20;99.90
22436;DHT22;11385;50.822;4.324;2022-12-18T00:21:46;-1.10;99.90
22436;DHT22;11385;50.822;4.324;2022-12-18T00:24:13;-1.10;99.90
22436;DHT22;11385;50.822;4.324;2022-12-18T00:26:40;-1.10;99.90
22436;DHT22;11385;50.822;4.324;2022-12-18T00:29:11;-1.20;99.90
22436;DHT22;11385;50.822;4.324;2022-12-18T00:31:40;-1.20;99.90
22436;DHT22;11385;50.822;4.324;2022-12-18T00:34:11;-1.30;99.90
22436;DHT22;11385;50.822;4.324;2022-12-18T00:36:39;-1.30;99.90
22436;DHT22;11385;50.822;4.324;2022-12-18T00:39:06;-1.40;99.90
22436;DHT22;11385;50.822;4.324;2022-12-18T00:41:33;-1.40;99.90
22436;DHT22;11385;50.822;4.324;2022-12-18T00:44:07;-1.40;99.90
22436;DHT22;11385;50.822;4.324;2022-12-18T00:46:34;-1.40;99.90
22436;DHT22;11385;50.822;4.324;2022-12-18T00:49:00;-1.40;99.90
22436;DHT22;11385;50.822;4.324;2022-12-18T00:51:27;-1.50;99.90
22436;DHT22;11385;50.822;4.324;2022-12-18T00:53:54;-1.40;99.90
22436;DHT22;11385;50.822;4.324;2022-12-18T00:56:21;-1.40;99.90
22436;DHT22;11385;50.822;4.324;2022-12-18T00:58:47;-1.50;99.90
22436;DHT22;11385;50.822;4.324;2022-12-18T01:01:14;-1.40;99.90
22436;DHT22;11385;50.822;4.324;2022-12-18T01:03:41;-1.50;99.90
22436;DHT22;11385;50.822;4.324;2022-12-18T01:06:10;-1.50;99.90
22436;DHT22;11385;50.822;4.324;2022-12-18T01:08:38;-1.60;99.90
22436;DHT22;11385;50.822;4.324;2022-12-18T01:11:10;-1.60;99.90
22436;DHT22;11385;50.822;4.324;2022-12-18T01:13:38;-1.60;99.90
22436;DHT22;11385;50.822;4.324;2022-12-18T01:16:06;-1.60;99.90
22436;DHT22;11385;50.822;4.324;2022-12-18T01:18:33;-1.60;99.90
22436;DHT22;11385;50.822;4.324;2022-12-18T01:20:59;-1.60;99.90
22436;DHT22;11385;50.822;4.324;2022-12-18T01:23:26;-1.60;99.90
22436;DHT22;11385;50.822;4.324;2022-12-18T01:25:53;-1.60;99.90
22436;DHT22;11385;50.822;4.324;2022-12-18T01:28:19;-1.60;99.90
22436;DHT22;11385;50.822;4.324;2022-12-18T01:30:46;-1.60;99.90
22436;DHT22;11385;50.822;4.324;2022-12-18T01:33:12;-1.60;99.90
22436;DHT22;11385;50.822;4.324;2022-12-18T01:35:42;-1.50;99.90
22436;DHT22;11385;50.822;4.324;2022-12-18T01:38:09;-1.60;99.90
22436;DHT22;11385;50.822;4.324;2022-12-18T01:40:36;-1.60;99.90
22436;DHT22;11385;50.822;4.324;2022-12-18T01:43:02;-1.60;99.90
22436;DHT22;11385;50.822;4.324;2022-12-18T01:45:31;-1.60;99.90
22436;DHT22;11385;50.822;4.324;2022-12-18T01:48:02;-1.60;99.90
22436;DHT22;11385;50.822;4.324;2022-12-18T01:50:34;-1.60;99.90
22436;DHT22;11385;50.822;4.324;2022-12-18T01:53:10;-1.60;99.90
22436;DHT22;11385;50.822;4.324;2022-12-18T01:55:43;-1.60;99.90
22436;DHT22;11385;50.822;4.324;2022-12-18T01:58:09;-1.60;99.90
22436;DHT22;11385;50.822;4.324;2022-12-18T02:00:36;-1.70;99.90
22436;DHT22;11385;50.822;4.324;2022-12-18T02:03:02;-1.70;99.90
22436;DHT22;11385;50.822;4.324;2022-12-18T02:05:37;-1.70;99.90
22436;DHT22;11385;50.822;4.324;2022-12-18T02:08:09;-1.70;99.90
22436;DHT22;11385;50.822;4.324;2022-12-18T02:11:12;-1.70;99.90
22436;DHT22;11385;50.822;4.324;2022-12-18T02:13:49;-1.50;99.90
22436;DHT22;11385;50.822;4.324;2022-12-18T02:19:09;-1.50;99.90
22436;DHT22;11385;50.822;4.324;2022-12-18T02:22:00;-1.60;99.90
22436;DHT22;11385;50.822;4.324;2022-12-18T02:24:34;-1.60;99.90
22436;DHT22;11385;50.822;4.324;2022-12-18T02:27:05;-1.60;99.90
22436;DHT22;11385;50.822;4.324;2022-12-18T02:29:38;-1.70;99.90
22436;DHT22;11385;50.822;4.324;2022-12-18T02:32:09;-1.70;99.90
22436;DHT22;11385;50.822;4.324;2022-12-18T02:34:36;-1.80;99.90
22436;DHT22;11385;50.822;4.324;2022-12-18T02:37:07;-1.90;99.90
22436;DHT22;11385;50.822;4.324;2022-12-18T02:39:36;-1.80;99.90
22436;DHT22;11385;50.822;4.324;2022-12-18T02:42:04;-1.90;99.90
22436;DHT22;11385;50.822;4.324;2022-12-18T02:44:34;-2.00;99.90
22436;DHT22;11385;50.822;4.324;2022-12-18T02:47:01;-2.00;99.90
22436;DHT22;11385;50.822;4.324;2022-12-18T02:49:36;-2.00;99.90
22436;DHT22;11385;50.822;4.324;2022-12-18T02:53:28;-2.10;99.90
22436;DHT22;11385;50.822;4.324;2022-12-18T02:55:28;-2.10;99.90
22436;DHT22;11385;50.822;4.324;2022-12-18T02:58:05;-2.10;99.90
22436;DHT22;11385;50.822;4.324;2022-12-18T03:00:48;-2.00;99.90
22436;DHT22;11385;50.822;4.324;2022-12-18T03:03:19;-1.80;99.90
22436;DHT22;11385;50.822;4.324;2022-12-18T03:05:48;-1.80;99.90
22436;DHT22;11385;50.822;4.324;2022-12-18T03:08:20;-1.80;99.90
22436;DHT22;11385;50.822;4.324;2022-12-18T03:10:55;-1.90;99.90
22436;DHT22;11385;50.822;4.324;2022-12-18T03:13:36;-1.90;99.90
22436;DHT22;11385;50.822;4.324;2022-12-18T03:16:03;-1.90;99.90
22436;DHT22;11385;50.822;4.324;2022-12-18T03:18:38;-1.90;99.90
22436;DHT22;11385;50.822;4.324;2022-12-18T03:21:06;-1.90;99.90
22436;DHT22;11385;50.822;4.324;2022-12-18T03:23:38;-1.90;99.90
22436;DHT22;11385;50.822;4.324;2022-12-18T03:26:07;-2.00;99.90
22436;DHT22;11385;50.822;4.324;2022-12-18T03:28:40;-2.00;99.90
22436;DHT22;11385;50.822;4.324;2022-12-18T03:31:09;-2.10;99.90
22436;DHT22;11385;50.822;4.324;2022-12-18T03:33:43;-2.10;99.90
22436;DHT22;11385;50.822;4.324;2022-12-18T03:36:10;-2.10;99.90
22436;DHT22;11385;50.822;4.324;2022-12-18T03:38:37;-2.10;99.90
22436;DHT22;11385;50.822;4.324;2022-12-18T03:41:15;-2.10;99.90
22436;DHT22;11385;50.822;4.324;2022-12-18T03:44:16;-2.10;99.90
22436;DHT22;11385;50.822;4.324;2022-12-18T03:46:33;-2.10;99.90
22436;DHT22;11385;50.822;4.324;2022-12-18T03:49:05;-2.00;99.90
22436;DHT22;11385;50.822;4.324;2022-12-18T03:51:44;-2.00;99.90
22436;DHT22;11385;50.822;4.324;2022-12-18T03:54:11;-2.10;99.90
22436;DHT22;11385;50.822;4.324;2022-12-18T03:56:47;-2.00;99.90
22436;DHT22;11385;50.822;4.324;2022-12-18T03:59:13;-2.00;99.90
22436;DHT22;11385;50.822;4.324;2022-12-18T04:01:45;-2.10;99.90
22436;DHT22;11385;50.822;4.324;2022-12-18T04:04:12;-2.00;99.90
22436;DHT22;11385;50.822;4.324;2022-12-18T04:06:40;-1.90;99.90
22436;DHT22;11385;50.822;4.324;2022-12-18T04:09:08;-1.90;99.90
22436;DHT22;11385;50.822;4.324;2022-12-18T04:11:36;-1.90;99.90
22436;DHT22;11385;50.822;4.324;2022-12-18T04:14:02;-1.90;99.90
22436;DHT22;11385;50.822;4.324;2022-12-18T04:16:30;-2.00;99.90
22436;DHT22;11385;50.822;4.324;2022-12-18T04:18:56;-2.00;99.90
22436;DHT22;11385;50.822;4.324;2022-12-18T04:21:23;-2.00;99.90
22436;DHT22;11385;50.822;4.324;2022-12-18T04:23:50;-2.00;99.90
22436;DHT22;11385;50.822;4.324;2022-12-18T04:26:16;-2.00;99.90
22436;DHT22;11385;50.822;4.324;2022-12-18T04:28:43;-2.10;99.90
22436;DHT22;11385;50.822;4.324;2022-12-18T04:31:10;-2.20;99.90
22436;DHT22;11385;50.822;4.324;2022-12-18T04:33:36;-2.20;99.90
22436;DHT22;11385;50.822;4.324;2022-12-18T04:36:03;-2.20;99.90
22436;DHT22;11385;50.822;4.324;2022-12-18T04:38:30;-2.10;99.90
22436;DHT22;11385;50.822;4.324;2022-12-18T04:40:56;-2.10;99.90
22436;DHT22;11385;50.822;4.324;2022-12-18T04:43:23;-2.20;99.90
22436;DHT22;11385;50.822;4.324;2022-12-18T04:45:50;-2.20;99.90
22436;DHT22;11385;50.822;4.324;2022-12-18T04:48:16;-2.30;99.90
22436;DHT22;11385;50.822;4.324;2022-12-18T04:50:43;-2.30;99.90
22436;DHT22;11385;50.822;4.324;2022-12-18T04:53:09;-2.30;99.90
22436;DHT22;11385;50.822;4.324;2022-12-18T04:55:36;-2.20;99.90
22436;DHT22;11385;50.822;4.324;2022-12-18T04:58:03;-2.20;99.90
22436;DHT22;11385;50.822;4.324;2022-12-18T05:00:29;-2.20;99.90
22436;DHT22;11385;50.822;4.324;2022-12-18T05:02:56;-2.20;99.90
22436;DHT22;11385;50.822;4.324;2022-12-18T05:05:22;-2.20;99.90
22436;DHT22;11385;50.822;4.324;2022-12-18T05:07:49;-2.30;99.90
22436;DHT22;11385;50.822;4.324;2022-12-18T05:10:16;-2.30;99.90
22436;DHT22;11385;50.822;4.324;2022-12-18T05:12:42;-2.30;99.90
22436;DHT22;11385;50.822;4.324;2022-12-18T05:15:15;-2.40;99.90
22436;DHT22;11385;50.822;4.324;2022-12-18T05:17:41;-2.30;99.90
22436;DHT22;11385;50.822;4.324;2022-12-18T05:20:08;-2.20;99.90
22436;DHT22;11385;50.822;4.324;2022-12-18T05:22:35;-2.20;99.90
22436;DHT22;11385;50.822;4.324;2022-12-18T05:25:02;-2.30;99.90
22436;DHT22;11385;50.822;4.324;2022-12-18T05:27:28;-2.30;99.90
22436;DHT22;11385;50.822;4.324;2022-12-18T05:29:55;-2.30;99.90
22436;DHT22;11385;50.822;4.324;2022-12-18T05:35:07;-2.30;99.90
22436;DHT22;11385;50.822;4.324;2022-12-18T05:37:34;-2.30;99.90
22436;DHT22;11385;50.822;4.324;2022-12-18T05:40:03;-2.30;99.90
22436;DHT22;11385;50.822;4.324;2022-12-18T05:42:30;-2.30;99.90
22436;DHT22;11385;50.822;4.324;2022-12-18T05:44:57;-2.20;99.90
22436;DHT22;11385;50.822;4.324;2022-12-18T05:47:23;-2.20;99.90
22436;DHT22;11385;50.822;4.324;2022-12-18T05:49:50;-2.10;99.90
22436;DHT22;11385;50.822;4.324;2022-12-18T05:52:17;-2.20;99.90
22436;DHT22;11385;50.822;4.324;2022-12-18T05:54:43;-2.30;99.90
22436;DHT22;11385;50.822;4.324;2022-12-18T05:57:10;-2.30;99.90
22436;DHT22;11385;50.822;4.324;2022-12-18T05:59:36;-2.30;99.90
22436;DHT22;11385;50.822;4.324;2022-12-18T06:02:03;-2.30;99.90
22436;DHT22;11385;50.822;4.324;2022-12-18T06:04:30;-2.40;99.90
22436;DHT22;11385;50.822;4.324;2022-12-18T06:06:57;-2.40;99.90
22436;DHT22;11385;50.822;4.324;2022-12-18T06:09:24;-2.50;99.90
22436;DHT22;11385;50.822;4.324;2022-12-18T06:11:51;-2.50;99.90
22436;DHT22;11385;50.822;4.324;2022-12-18T06:14:18;-2.60;99.90
22436;DHT22;11385;50.822;4.324;2022-12-18T06:16:45;-2.60;99.90
22436;DHT22;11385;50.822;4.324;2022-12-18T06:19:14;-2.50;99.90
22436;DHT22;11385;50.822;4.324;2022-12-18T06:21:41;-2.60;99.90
22436;DHT22;11385;50.822;4.324;2022-12-18T06:24:08;-2.60;99.90
22436;DHT22;11385;50.822;4.324;2022-12-18T06:26:37;-2.60;99.90
22436;DHT22;11385;50.822;4.324;2022-12-18T06:29:04;-2.50;99.90
22436;DHT22;11385;50.822;4.324;2022-12-18T06:31:31;-2.50;99.90
22436;DHT22;11385;50.822;4.324;2022-12-18T06:33:58;-2.50;99.90
22436;DHT22;11385;50.822;4.324;2022-12-18T06:36:24;-2.50;99.90
22436;DHT22;11385;50.822;4.324;2022-12-18T06:38:51;-2.40;99.90
22436;DHT22;11385;50.822;4.324;2022-12-18T06:41:20;-2.50;99.90
22436;DHT22;11385;50.822;4.324;2022-12-18T06:43:47;-2.40;99.90
22436;DHT22;11385;50.822;4.324;2022-12-18T06:46:14;-2.50;99.90
22436;DHT22;11385;50.822;4.324;2022-12-18T06:48:41;-2.50;99.90
22436;DHT22;11385;50.822;4.324;2022-12-18T06:51:08;-2.40;99.90
22436;DHT22;11385;50.822;4.324;2022-12-18T06:53:35;-2.40;99.90
22436;DHT22;11385;50.822;4.324;2022-12-18T06:56:04;-2.40;99.90
22436;DHT22;11385;50.822;4.324;2022-12-18T06:58:31;-2.40;99.90
22436;DHT22;11385;50.822;4.324;2022-12-18T07:01:00;-2.30;99.90
22436;DHT22;11385;50.822;4.324;2022-12-18T07:03:27;-2.30;99.90
22436;DHT22;11385;50.822;4.324;2022-12-18T07:05:54;-2.30;99.90
22436;DHT22;11385;50.822;4.324;2022-12-18T07:08:21;-2.30;99.90
22436;DHT22;11385;50.822;4.324;2022-12-18T07:10:48;-2.30;99.90
22436;DHT22;11385;50.822;4.324;2022-12-18T07:13:16;-2.20;99.90
22436;DHT22;11385;50.822;4.324;2022-12-18T07:15:43;-2.20;99.90
22436;DHT22;11385;50.822;4.324;2022-12-18T07:18:10;-2.20;99.90
22436;DHT22;11385;50.822;4.324;2022-12-18T07:20:37;-2.20;99.90
22436;DHT22;11385;50.822;4.324;2022-12-18T07:23:04;-2.10;99.90
22436;DHT22;11385;50.822;4.324;2022-12-18T07:25:35;-2.00;99.90
22436;DHT22;11385;50.822;4.324;2022-12-18T07:28:03;-2.00;99.90
22436;DHT22;11385;50.822;4.324;2022-12-18T07:30:30;-2.00;99.90
22436;DHT22;11385;50.822;4.324;2022-12-18T07:32:57;-2.00;99.90
22436;DHT22;11385;50.822;4.324;2022-12-18T07:35:23;-2.00;99.90
22436;DHT22;11385;50.822;4.324;2022-12-18T07:37:50;-2.00;99.90
22436;DHT22;11385;50.822;4.324;2022-12-18T07:40:16;-2.00;99.90
22436;DHT22;11385;50.822;4.324;2022-12-18T07:42:43;-2.00;99.90
22436;DHT22;11385;50.822;4.324;2022-12-18T07:45:10;-1.90;99.90
22436;DHT22;11385;50.822;4.324;2022-12-18T07:47:37;-2.00;99.90
22436;DHT22;11385;50.822;4.324;2022-12-18T07:50:04;-2.00;99.90
22436;DHT22;11385;50.822;4.324;2022-12-18T07:52:31;-2.00;99.90
22436;DHT22;11385;50.822;4.324;2022-12-18T07:54:58;-1.80;99.90
22436;DHT22;11385;50.822;4.324;2022-12-18T07:57:24;-1.80;99.90
22436;DHT22;11385;50.822;4.324;2022-12-18T07:59:51;-1.80;99.90
22436;DHT22;11385;50.822;4.324;2022-12-18T08:02:18;-1.90;99.90
22436;DHT22;11385;50.822;4.324;2022-12-18T08:04:44;-1.90;99.90
22436;DHT22;11385;50.822;4.324;2022-12-18T08:07:11;-1.80;99.90
22436;DHT22;11385;50.822;4.324;2022-12-18T08:09:38;-1.70;99.90
22436;DHT22;11385;50.822;4.324;2022-12-18T08:12:05;-1.60;99.90
22436;DHT22;11385;50.822;4.324;2022-12-18T08:14:31;-1.60;99.90
22436;DHT22;11385;50.822;4.324;2022-12-18T08:16:58;-1.60;99.90
22436;DHT22;11385;50.822;4.324;2022-12-18T08:19:25;-1.60;99.90
22436;DHT22;11385;50.822;4.324;2022-12-18T08:21:51;-1.60;99.90
22436;DHT22;11385;50.822;4.324;2022-12-18T08:24:18;-1.40;99.90
22436;DHT22;11385;50.822;4.324;2022-12-18T08:26:44;-1.30;99.90
22436;DHT22;11385;50.822;4.324;2022-12-18T08:29:11;-1.30;99.90
22436;DHT22;11385;50.822;4.324;2022-12-18T08:31:38;-1.30;99.90
22436;DHT22;11385;50.822;4.324;2022-12-18T08:34:04;-1.20;99.90
22436;DHT22;11385;50.822;4.324;2022-12-18T08:36:31;-1.10;99.90
22436;DHT22;11385;50.822;4.324;2022-12-18T08:38:58;-1.00;99.90
22436;DHT22;11385;50.822;4.324;2022-12-18T08:41:24;-1.10;99.90
22436;DHT22;11385;50.822;4.324;2022-12-18T08:43:51;-1.10;99.90
22436;DHT22;11385;50.822;4.324;2022-12-18T08:46:25;-1.10;99.90
22436;DHT22;11385;50.822;4.324;2022-12-18T08:48:53;-1.00;99.90
22436;DHT22;11385;50.822;4.324;2022-12-18T08:51:20;-0.90;99.90
22436;DHT22;11385;50.822;4.324;2022-12-18T08:53:47;-0.80;99.90
22436;DHT22;11385;50.822;4.324;2022-12-18T08:56:14;-0.80;99.90
22436;DHT22;11385;50.822;4.324;2022-12-18T08:58:41;-0.70;99.90
22436;DHT22;11385;50.822;4.324;2022-12-18T09:01:10;-0.60;99.90
22436;DHT22;11385;50.822;4.324;2022-12-18T09:03:38;-0.50;99.90
22436;DHT22;11385;50.822;4.324;2022-12-18T09:06:05;-0.40;99.90
22436;DHT22;11385;50.822;4.324;2022-12-18T09:08:32;-0.40;99.90
22436;DHT22;11385;50.822;4.324;2022-12-18T09:10:59;-0.30;99.90
22436;DHT22;11385;50.822;4.324;2022-12-18T09:13:26;-0.30;99.90
22436;DHT22;11385;50.822;4.324;2022-12-18T09:15:54;-0.20;99.90
22436;DHT22;11385;50.822;4.324;2022-12-18T09:18:23;0.00;99.90
22436;DHT22;11385;50.822;4.324;2022-12-18T09:20:51;0.10;99.90
22436;DHT22;11385;50.822;4.324;2022-12-18T09:23:18;0.10;99.90
22436;DHT22;11385;50.822;4.324;2022-12-18T09:25:46;0.10;99.90
22436;DHT22;11385;50.822;4.324;2022-12-18T09:28:16;0.10;99.90
22436;DHT22;11385;50.822;4.324;2022-12-18T09:30:46;0.00;99.90
22436;DHT22;11385;50.822;4.324;2022-12-18T09:33:13;0.20;99.90
22436;DHT22;11385;50.822;4.324;2022-12-18T09:35:42;0.30;99.90
22436;DHT22;11385;50.822;4.324;2022-12-18T09:38:11;0.30;99.90
22436;DHT22;11385;50.822;4.324;2022-12-18T09:40:47;0.30;99.90
22436;DHT22;11385;50.822;4.324;2022-12-18T09:43:35;0.30;99.90
22436;DHT22;11385;50.822;4.324;2022-12-18T09:46:06;0.30;99.90
22436;DHT22;11385;50.822;4.324;2022-12-18T09:48:38;0.30;99.90
22436;DHT22;11385;50.822;4.324;2022-12-18T09:51:17;0.40;99.90
22436;DHT22;11385;50.822;4.324;2022-12-18T09:53:51;0.40;99.90
22436;DHT22;11385;50.822;4.324;2022-12-18T09:56:18;0.50;99.90
22436;DHT22;11385;50.822;4.324;2022-12-18T09:58:55;0.60;99.90
22436;DHT22;11385;50.822;4.324;2022-12-18T10:01:22;0.70;99.90
22436;DHT22;11385;50.822;4.324;2022-12-18T10:03:50;0.70;99.90
22436;DHT22;11385;50.822;4.324;2022-12-18T10:06:25;0.80;99.90
22436;DHT22;11385;50.822;4.324;2022-12-18T10:09:15;0.70;99.90
22436;DHT22;11385;50.822;4.324;2022-12-18T10:12:13;0.70;99.90
22436;DHT22;11385;50.822;4.324;2022-12-18T10:14:53;0.80;99.90
22436;DHT22;11385;50.822;4.324;2022-12-18T10:20:32;0.90;99.90
22436;DHT22;11385;50.822;4.324;2022-12-18T10:23:05;1.00;99.90
22436;DHT22;11385;50.822;4.324;2022-12-18T10:25:49;1.10;99.90
22436;DHT22;11385;50.822;4.324;2022-12-18T10:28:17;1.30;99.90
22436;DHT22;11385;50.822;4.324;2022-12-18T10:30:45;1.20;99.90
22436;DHT22;11385;50.822;4.324;2022-12-18T10:33:13;1.30;99.90
22436;DHT22;11385;50.822;4.324;2022-12-18T10:35:42;1.10;99.90
22436;DHT22;11385;50.822;4.324;2022-12-18T10:38:29;1.20;99.90
22436;DHT22;11385;50.822;4.324;2022-12-18T10:41:02;1.20;99.90
22436;DHT22;11385;50.822;4.324;2022-12-18T10:43:32;1.40;99.90
22436;DHT22;11385;50.822;4.324;2022-12-18T10:46:12;1.30;99.90
22436;DHT22;11385;50.822;4.324;2022-12-18T10:48:39;1.40;99.90
22436;DHT22;11385;50.822;4.324;2022-12-18T10:51:06;1.40;99.90
22436;DHT22;11385;50.822;4.324;2022-12-18T10:53:34;1.40;99.90
22436;DHT22;11385;50.822;4.324;2022-12-18T10:56:04;1.50;99.90
22436;DHT22;11385;50.822;4.324;2022-12-18T10:58:33;1.50;99.90
22436;DHT22;11385;50.822;4.324;2022-12-18T11:01:11;1.60;99.90
22436;DHT22;11385;50.822;4.324;2022-12-18T11:03:42;1.50;99.90
22436;DHT22;11385;50.822;4.324;2022-12-18T11:06:12;1.60;99.90
22436;DHT22;11385;50.822;4.324;2022-12-18T11:08:42;1.60;99.90
22436;DHT22;11385;50.822;4.324;2022-12-18T11:11:19;1.70;99.90
22436;DHT22;11385;50.822;4.324;2022-12-18T11:16:43;1.60;99.90
22436;DHT22;11385;50.822;4.324;2022-12-18T11:19:21;1.60;99.90
22436;DHT22;11385;50.822;4.324;2022-12-18T11:21:48;1.70;99.90
22436;DHT22;11385;50.822;4.324;2022-12-18T11:24:24;1.80;99.90
22436;DHT22;11385;50.822;4.324;2022-12-18T11:26:50;1.80;99.90
22436;DHT22;11385;50.822;4.324;2022-12-18T11:29:22;2.00;99.90
22436;DHT22;11385;50.822;4.324;2022-12-18T11:31:47;1.90;99.90
22436;DHT22;11385;50.822;4.324;2022-12-18T11:34:18;1.90;99.90
22436;DHT22;11385;50.822;4.324;2022-12-18T11:36:45;2.00;99.90
22436;DHT22;11385;50.822;4.324;2022-12-18T11:39:20;2.00;99.90
22436;DHT22;11385;50.822;4.324;2022-12-18T11:41:50;2.00;99.90
22436;DHT22;11385;50.822;4.324;2022-12-18T11:44:43;2.00;99.90
22436;DHT22;11385;50.822;4.324;2022-12-18T11:47:30;1.90;99.90
22436;DHT22;11385;50.822;4.324;2022-12-18T11:50:00;2.00;99.90
22436;DHT22;11385;50.822;4.324;2022-12-18T11:52:35;2.10;99.90
22436;DHT22;11385;50.822;4.324;2022-12-18T11:55:11;2.10;99.90
22436;DHT22;11385;50.822;4.324;2022-12-18T11:57:45;2.20;99.90
22436;DHT22;11385;50.822;4.324;2022-12-18T12:00:15;2.20;99.90
22436;DHT22;11385;50.822;4.324;2022-12-18T12:05:38;2.40;99.90
22436;DHT22;11385;50.822;4.324;2022-12-18T12:08:12;2.40;99.90
22436;DHT22;11385;50.822;4.324;2022-12-18T12:10:45;2.50;99.90
22436;DHT22;11385;50.822;4.324;2022-12-18T12:13:37;2.60;99.90
22436;DHT22;11385;50.822;4.324;2022-12-18T12:16:14;2.60;99.90
22436;DHT22;11385;50.822;4.324;2022-12-18T12:18:55;2.60;99.90
22436;DHT22;11385;50.822;4.324;2022-12-18T12:24:04;2.60;99.90
22436;DHT22;11385;50.822;4.324;2022-12-18T12:26:35;2.50;99.90
22436;DHT22;11385;50.822;4.324;2022-12-18T12:29:13;2.60;99.90
22436;DHT22;11385;50.822;4.324;2022-12-18T12:31:42;2.70;99.90
22436;DHT22;11385;50.822;4.324;2022-12-18T12:34:15;2.80;99.90
22436;DHT22;11385;50.822;4.324;2022-12-18T12:39:18;2.70;99.90
22436;DHT22;11385;50.822;4.324;2022-12-18T12:41:46;2.60;99.90
22436;DHT22;11385;50.822;4.324;2022-12-18T12:44:38;2.70;99.90
22436;DHT22;11385;50.822;4.324;2022-12-18T12:47:11;2.70;99.90
22436;DHT22;11385;50.822;4.324;2022-12-18T12:49:35;2.70;99.90
22436;DHT22;11385;50.822;4.324;2022-12-18T12:52:06;2.70;99.90
22436;DHT22;11385;50.822;4.324;2022-12-18T12:54:34;2.70;99.90
22436;DHT22;11385;50.822;4.324;2022-12-18T13:00:04;2.30;99.90
22436;DHT22;11385;50.822;4.324;2022-12-18T13:02:42;2.50;99.90
22436;DHT22;11385;50.822;4.324;2022-12-18T13:05:27;2.50;99.90
22436;DHT22;11385;50.822;4.324;2022-12-18T13:07:59;2.50;99.90
22436;DHT22;11385;50.822;4.324;2022-12-18T13:10:34;2.50;99.90
22436;DHT22;11385;50.822;4.324;2022-12-18T13:13:04;2.50;99.90
22436;DHT22;11385;50.822;4.324;2022-12-18T13:15:49;2.20;99.90
22436;DHT22;11385;50.822;4.324;2022-12-18T13:18:20;2.30;99.90
22436;DHT22;11385;50.822;4.324;2022-12-18T13:20:51;2.30;99.90
22436;DHT22;11385;50.822;4.324;2022-12-18T13:23:35;2.50;99.90
22436;DHT22;11385;50.822;4.324;2022-12-18T13:26:30;2.40;99.90
22436;DHT22;11385;50.822;4.324;2022-12-18T13:28:58;2.10;99.90
22436;DHT22;11385;50.822;4.324;2022-12-18T13:31:57;2.10;99.90
22436;DHT22;11385;50.822;4.324;2022-12-18T13:34:21;2.00;99.90
22436;DHT22;11385;50.822;4.324;2022-12-18T13:36:51;2.20;99.90
22436;DHT22;11385;50.822;4.324;2022-12-18T13:39:24;2.40;99.90
22436;DHT22;11385;50.822;4.324;2022-12-18T13:44:26;2.20;99.90
22436;DHT22;11385;50.822;4.324;2022-12-18T13:46:53;2.20;99.90
22436;DHT22;11385;50.822;4.324;2022-12-18T13:49:38;2.20;99.90
22436;DHT22;11385;50.822;4.324;2022-12-18T13:52:17;2.00;99.90
22436;DHT22;11385;50.822;4.324;2022-12-18T13:54:47;2.10;99.90
22436;DHT22;11385;50.822;4.324;2022-12-18T13:57:36;2.30;99.90
22436;DHT22;11385;50.822;4.324;2022-12-18T14:00:23;2.10;99.90
22436;DHT22;11385;50.822;4.324;2022-12-18T14:02:46;2.10;99.90
22436;DHT22;11385;50.822;4.324;2022-12-18T14:05:24;2.10;99.90
22436;DHT22;11385;50.822;4.324;2022-12-18T14:07:52;2.10;99.90
22436;DHT22;11385;50.822;4.324;2022-12-18T14:10:20;1.90;99.90
22436;DHT22;11385;50.822;4.324;2022-12-18T14:12:49;2.00;99.90
22436;DHT22;11385;50.822;4.324;2022-12-18T14:15:33;2.10;99.90
22436;DHT22;11385;50.822;4.324;2022-12-18T14:18:11;2.10;99.90
22436;DHT22;11385;50.822;4.324;2022-12-18T14:20:34;2.10;99.90
22436;DHT22;11385;50.822;4.324;2022-12-18T14:23:02;2.10;99.90
22436;DHT22;11385;50.822;4.324;2022-12-18T14:25:30;2.20;99.90
22436;DHT22;11385;50.822;4.324;2022-12-18T14:28:13;2.20;99.90
22436;DHT22;11385;50.822;4.324;2022-12-18T14:30:41;2.20;99.90
22436;DHT22;11385;50.822;4.324;2022-12-18T14:33:14;2.30;99.90
22436;DHT22;11385;50.822;4.324;2022-12-18T14:35:52;2.20;99.90
22436;DHT22;11385;50.822;4.324;2022-12-18T14:38:24;2.20;99.90
22436;DHT22;11385;50.822;4.324;2022-12-18T14:40:54;2.30;99.90
22436;DHT22;11385;50.822;4.324;2022-12-18T14:43:22;2.40;99.90
22436;DHT22;11385;50.822;4.324;2022-12-18T14:45:49;2.40;99.90
22436;DHT22;11385;50.822;4.324;2022-12-18T14:48:32;2.50;99.90
22436;DHT22;11385;50.822;4.324;2022-12-18T14:50:59;2.60;99.90
22436;DHT22;11385;50.822;4.324;2022-12-18T14:53:32;2.50;99.90
22436;DHT22;11385;50.822;4.324;2022-12-18T14:55:58;2.50;99.90
22436;DHT22;11385;50.822;4.324;2022-12-18T14:58:25;2.50;99.90
22436;DHT22;11385;50.822;4.324;2022-12-18T15:00:51;2.50;99.90
22436;DHT22;11385;50.822;4.324;2022-12-18T15:03:20;2.40;99.90
22436;DHT22;11385;50.822;4.324;2022-12-18T15:05:47;2.30;99.90
22436;DHT22;11385;50.822;4.324;2022-12-18T15:10:48;2.20;99.90
22436;DHT22;11385;50.822;4.324;2022-12-18T15:13:24;2.30;99.90
22436;DHT22;11385;50.822;4.324;2022-12-18T15:15:52;2.30;99.90
22436;DHT22;11385;50.822;4.324;2022-12-18T15:18:28;2.20;99.90
22436;DHT22;11385;50.822;4.324;2022-12-18T15:20:56;2.20;99.90
22436;DHT22;11385;50.822;4.324;2022-12-18T15:23:29;2.10;99.90
22436;DHT22;11385;50.822;4.324;2022-12-18T15:25:58;2.10;99.90
22436;DHT22;11385;50.822;4.324;2022-12-18T15:28:32;2.10;99.90
22436;DHT22;11385;50.822;4.324;2022-12-18T15:31:19;2.00;99.90
22436;DHT22;11385;50.822;4.324;2022-12-18T15:33:37;2.00;99.90
22436;DHT22;11385;50.822;4.324;2022-12-18T15:36:09;2.10;99.90
22436;DHT22;11385;50.822;4.324;2022-12-18T15:38:36;2.20;99.90
22436;DHT22;11385;50.822;4.324;2022-12-18T15:41:03;2.30;99.90
22436;DHT22;11385;50.822;4.324;2022-12-18T15:43:37;2.40;99.90
22436;DHT22;11385;50.822;4.324;2022-12-18T15:46:06;2.20;99.90
22436;DHT22;11385;50.822;4.324;2022-12-18T15:48:34;2.10;99.90
22436;DHT22;11385;50.822;4.324;2022-12-18T15:51:01;2.30;99.90
22436;DHT22;11385;50.822;4.324;2022-12-18T15:53:31;2.30;99.90
22436;DHT22;11385;50.822;4.324;2022-12-18T15:55:59;2.20;99.90
22436;DHT22;11385;50.822;4.324;2022-12-18T15:58:31;2.00;99.90
22436;DHT22;11385;50.822;4.324;2022-12-18T16:01:00;2.00;99.90
22436;DHT22;11385;50.822;4.324;2022-12-18T16:03:27;2.00;99.90
22436;DHT22;11385;50.822;4.324;2022-12-18T16:05:54;2.00;99.90
22436;DHT22;11385;50.822;4.324;2022-12-18T16:08:21;2.10;99.90
22436;DHT22;11385;50.822;4.324;2022-12-18T16:10:47;2.20;99.90
22436;DHT22;11385;50.822;4.324;2022-12-18T16:13:16;2.30;99.90
22436;DHT22;11385;50.822;4.324;2022-12-18T16:15:45;2.20;99.90
22436;DHT22;11385;50.822;4.324;2022-12-18T16:18:12;2.10;99.90
22436;DHT22;11385;50.822;4.324;2022-12-18T16:20:39;1.90;99.90
22436;DHT22;11385;50.822;4.324;2022-12-18T16:23:06;2.00;99.90
22436;DHT22;11385;50.822;4.324;2022-12-18T16:25:33;2.10;99.90